Time,TemperatureF,DewpointF,PressureIn,WindDirection,WindDirectionDegrees,WindSpeedMPH,WindSpeedGustMPH,Humidity,HourlyPrecipIn,Conditions,Clouds,dailyrainin,SoftwareType,DateUTC
2013-07-08 00:00:00,69.0,68.1,30.17,SE,137,0.0,0.0,97,0.00,,---,0.00,VWS V14.01,2013-07-08 04:00:00,
2013-07-08 00:01:00,69.0,68.1,30.17,SE,137,0.0,0.0,97,0.00,,---,0.00,VWS V14.01,2013-07-08 04:01:00,
2013-07-08 00:06:00,69.0,68.1,30.16,SE,137,0.0,0.0,97,0.01,,---,0.01,VWS V14.01,2013-07-08 04:06:00,
2013-07-08 00:11:00,69.0,68.1,30.17,SE,137,0.0,0.0,97,0.01,,---,0.01,VWS V14.01,2013-07-08 04:11:00,
2013-07-08 00:16:00,69.1,68.2,30.16,SE,137,0.0,0.0,97,0.02,,---,0.02,VWS V14.01,2013-07-08 04:16:00,
2013-07-08 00:21:00,69.0,68.1,30.16,SE,137,0.0,0.0,97,0.02,,---,0.02,VWS V14.01,2013-07-08 04:21:00,
2013-07-08 00:26:00,69.0,68.1,30.16,SE,137,0.0,0.0,97,0.02,,---,0.02,VWS V14.01,2013-07-08 04:26:00,
2013-07-08 00:31:00,69.0,68.1,30.16,SE,137,0.0,0.0,97,0.02,,---,0.02,VWS V14.01,2013-07-08 04:31:00,
2013-07-08 00:36:00,69.0,68.1,30.16,SE,137,0.0,0.0,97,0.02,,---,0.02,VWS V14.01,2013-07-08 04:36:00,
2013-07-08 00:41:00,69.0,68.1,30.17,SE,137,0.0,0.0,97,0.02,,---,0.02,VWS V14.01,2013-07-08 04:41:00,
2013-07-08 00:46:00,68.9,68.0,30.16,SE,137,0.0,0.0,97,0.02,,---,0.02,VWS V14.01,2013-07-08 04:46:00,
2013-07-08 00:51:00,68.9,68.0,30.17,SE,137,0.0,0.0,97,0.02,,---,0.02,VWS V14.01,2013-07-08 04:51:00,
2013-07-08 00:56:00,68.8,67.9,30.17,SE,137,0.0,0.0,97,0.02,,---,0.02,VWS V14.01,2013-07-08 04:56:00,
2013-07-08 01:01:00,68.8,67.9,30.17,SE,137,0.0,0.0,97,0.02,,---,0.02,VWS V14.01,2013-07-08 05:01:00,
2013-07-08 01:06:00,68.8,67.9,30.18,SE,137,0.0,0.0,97,0.02,,---,0.02,VWS V14.01,2013-07-08 05:06:00,
2013-07-08 01:11:00,68.8,67.9,30.18,SE,137,0.0,0.0,97,0.02,,---,0.02,VWS V14.01,2013-07-08 05:11:00,
2013-07-08 01:16:00,68.7,67.8,30.18,SE,137,0.0,0.0,97,0.00,,---,0.02,VWS V14.01,2013-07-08 05:16:00,
2013-07-08 01:21:00,68.8,67.9,30.18,SE,137,0.0,0.0,97,0.00,,---,0.02,VWS V14.01,2013-07-08 05:21:00,
2013-07-08 01:26:00,68.8,67.9,30.18,SE,137,0.0,0.0,97,0.00,,---,0.02,VWS V14.01,2013-07-08 05:26:00,
2013-07-08 01:31:00,68.8,67.9,30.18,SE,138,0.0,0.0,97,0.00,,---,0.02,VWS V14.01,2013-07-08 05:31:00,
2013-07-08 01:36:00,68.8,67.9,30.18,SE,138,0.0,0.0,97,0.00,,---,0.02,VWS V14.01,2013-07-08 05:36:00,
2013-07-08 01:41:00,68.7,67.8,30.19,SSE,150,0.0,0.0,97,0.00,,---,0.02,VWS V14.01,2013-07-08 05:41:00,
2013-07-08 01:46:00,68.8,67.9,30.19,SSE,150,0.0,0.0,97,0.00,,---,0.02,VWS V14.01,2013-07-08 05:46:00,
2013-07-08 01:51:00,68.8,67.9,30.19,SSE,150,0.0,0.0,97,0.01,,---,0.03,VWS V14.01,2013-07-08 05:51:00,
2013-07-08 01:56:00,68.7,67.8,30.18,SSE,150,0.0,0.0,97,0.01,,---,0.03,VWS V14.01,2013-07-08 05:56:00,
2013-07-08 02:01:00,68.7,67.8,30.18,SSE,150,0.0,0.0,97,0.01,,---,0.03,VWS V14.01,2013-07-08 06:01:00,
2013-07-08 02:06:00,68.7,67.8,30.18,SSE,150,0.0,0.0,97,0.01,,---,0.03,VWS V14.01,2013-07-08 06:06:00,
2013-07-08 02:11:00,68.7,67.8,30.18,SSE,150,0.0,0.0,97,0.01,,---,0.03,VWS V14.01,2013-07-08 06:11:00,
2013-07-08 02:16:00,68.7,67.8,30.18,SSE,150,0.0,0.0,97,0.01,,---,0.03,VWS V14.01,2013-07-08 06:16:00,
2013-07-08 02:21:00,68.8,67.9,30.18,SSE,150,0.0,0.0,97,0.01,,---,0.03,VWS V14.01,2013-07-08 06:21:00,
2013-07-08 02:26:00,68.7,67.8,30.17,SSE,150,0.0,0.0,97,0.01,,---,0.03,VWS V14.01,2013-07-08 06:26:00,
2013-07-08 02:31:00,68.8,67.9,30.17,SSE,150,0.0,0.0,97,0.01,,---,0.03,VWS V14.01,2013-07-08 06:31:00,
2013-07-08 02:36:00,68.8,67.9,30.17,SSE,150,0.0,0.0,97,0.01,,---,0.03,VWS V14.01,2013-07-08 06:36:00,
2013-07-08 02:41:00,68.8,67.9,30.17,SSE,150,0.0,0.0,97,0.01,,---,0.03,VWS V14.01,2013-07-08 06:41:00,
2013-07-08 02:46:00,68.8,67.9,30.17,SSE,150,0.0,0.0,97,0.01,,---,0.03,VWS V14.01,2013-07-08 06:46:00,
2013-07-08 02:51:00,68.7,67.8,30.17,SSE,150,0.0,0.0,97,0.01,,---,0.03,VWS V14.01,2013-07-08 06:51:00,
2013-07-08 02:56:00,68.7,67.8,30.17,SSE,150,0.0,0.0,97,0.01,,---,0.03,VWS V14.01,2013-07-08 06:56:00,
2013-07-08 03:01:00,68.6,67.7,30.17,SSE,150,0.0,0.0,97,0.00,,---,0.03,VWS V14.01,2013-07-08 07:01:00,
2013-07-08 03:06:00,68.5,67.6,30.17,SSE,150,0.0,0.0,97,0.00,,---,0.03,VWS V14.01,2013-07-08 07:06:00,
2013-07-08 03:11:00,68.4,67.5,30.16,SSE,150,0.0,0.0,97,0.00,,---,0.03,VWS V14.01,2013-07-08 07:11:00,
2013-07-08 03:16:00,68.4,67.5,30.16,SSE,150,0.0,0.0,97,0.00,,---,0.03,VWS V14.01,2013-07-08 07:16:00,
2013-07-08 03:21:00,68.2,67.3,30.16,SSE,150,0.0,0.0,97,0.00,,---,0.03,VWS V14.01,2013-07-08 07:21:00,
2013-07-08 03:26:00,68.1,67.2,30.16,SSE,150,0.0,0.0,97,0.00,,---,0.03,VWS V14.01,2013-07-08 07:26:00,
2013-07-08 03:31:00,67.9,67.0,30.16,SSE,150,0.0,0.0,97,0.00,,---,0.03,VWS V14.01,2013-07-08 07:31:00,
2013-07-08 03:36:00,67.7,66.8,30.16,SSE,150,0.0,0.0,97,0.00,,---,0.03,VWS V14.01,2013-07-08 07:36:00,
2013-07-08 03:41:00,67.6,66.7,30.16,SSE,150,0.0,0.0,97,0.00,,---,0.03,VWS V14.01,2013-07-08 07:41:00,
2013-07-08 03:46:00,67.5,66.6,30.16,SSE,150,0.0,0.0,97,0.00,,---,0.03,VWS V14.01,2013-07-08 07:46:00,
2013-07-08 03:51:00,67.3,66.4,30.16,SSE,150,0.0,0.0,97,0.00,,---,0.03,VWS V14.01,2013-07-08 07:51:00,
2013-07-08 03:56:00,67.2,66.3,30.16,West,273,0.0,0.0,97,0.00,,---,0.03,VWS V14.01,2013-07-08 07:56:00,
2013-07-08 04:01:00,67.2,66.3,30.16,West,273,0.0,0.0,97,0.00,,---,0.03,VWS V14.01,2013-07-08 08:01:00,
2013-07-08 04:06:00,67.0,66.1,30.16,West,273,0.0,0.0,97,0.00,,---,0.03,VWS V14.01,2013-07-08 08:06:00,
2013-07-08 04:11:00,67.0,66.1,30.16,West,273,0.0,0.0,97,0.00,,---,0.03,VWS V14.01,2013-07-08 08:11:00,
2013-07-08 04:16:00,66.8,65.9,30.16,West,273,0.0,0.0,97,0.00,,---,0.03,VWS V14.01,2013-07-08 08:16:00,
2013-07-08 04:21:00,66.8,65.9,30.16,West,273,0.0,0.0,97,0.00,,---,0.03,VWS V14.01,2013-07-08 08:21:00,
2013-07-08 04:26:00,66.8,65.9,30.16,West,273,0.0,0.0,97,0.00,,---,0.03,VWS V14.01,2013-07-08 08:26:00,
2013-07-08 04:31:00,66.8,65.9,30.16,West,273,0.0,0.0,97,0.00,,---,0.03,VWS V14.01,2013-07-08 08:31:00,
2013-07-08 04:36:00,66.9,66.0,30.16,West,273,0.0,0.0,97,0.00,,---,0.03,VWS V14.01,2013-07-08 08:36:00,
2013-07-08 04:41:00,66.8,65.9,30.16,West,279,0.0,0.0,97,0.00,,---,0.03,VWS V14.01,2013-07-08 08:41:00,
2013-07-08 04:46:00,66.8,65.9,30.16,West,279,0.0,0.0,97,0.00,,---,0.03,VWS V14.01,2013-07-08 08:46:00,
2013-07-08 04:51:00,66.8,65.9,30.16,West,279,0.0,0.0,97,0.00,,---,0.03,VWS V14.01,2013-07-08 08:51:00,
2013-07-08 04:56:00,66.7,65.8,30.16,West,279,0.0,0.0,97,0.00,,---,0.03,VWS V14.01,2013-07-08 08:56:00,
2013-07-08 05:01:00,66.6,65.7,30.16,West,279,0.0,0.0,97,0.00,,---,0.03,VWS V14.01,2013-07-08 09:01:00,
2013-07-08 05:06:00,66.4,65.5,30.16,West,279,0.0,0.0,97,0.00,,---,0.03,VWS V14.01,2013-07-08 09:06:00,
2013-07-08 05:11:00,66.2,65.3,30.16,West,279,0.0,0.0,97,0.00,,---,0.03,VWS V14.01,2013-07-08 09:11:00,
2013-07-08 05:16:00,66.1,65.2,30.16,West,279,0.0,0.0,97,0.00,,---,0.03,VWS V14.01,2013-07-08 09:16:00,
2013-07-08 05:21:00,65.9,65.0,30.16,West,279,0.0,0.0,97,0.00,,---,0.03,VWS V14.01,2013-07-08 09:21:00,
2013-07-08 05:26:00,65.9,65.0,30.16,WNW,284,0.0,2.0,97,0.00,,---,0.03,VWS V14.01,2013-07-08 09:26:00,
2013-07-08 05:31:00,65.9,65.0,30.16,WNW,284,0.0,0.0,97,0.00,,---,0.03,VWS V14.01,2013-07-08 09:31:00,
2013-07-08 05:36:00,65.9,65.0,30.16,WNW,284,0.0,0.0,97,0.00,,---,0.03,VWS V14.01,2013-07-08 09:36:00,
2013-07-08 05:41:00,65.8,64.9,30.16,WNW,284,0.0,0.0,97,0.00,,---,0.03,VWS V14.01,2013-07-08 09:41:00,
2013-07-08 05:46:00,65.6,64.7,30.17,WNW,284,0.0,0.0,97,0.00,,---,0.03,VWS V14.01,2013-07-08 09:46:00,
2013-07-08 05:51:00,65.5,64.6,30.17,WNW,284,0.0,0.0,97,0.00,,---,0.03,VWS V14.01,2013-07-08 09:51:00,
2013-07-08 05:56:00,65.4,64.5,30.17,WNW,284,0.0,0.0,97,0.00,,---,0.03,VWS V14.01,2013-07-08 09:56:00,
2013-07-08 06:01:00,65.3,64.4,30.17,WNW,284,0.0,0.0,97,0.00,,---,0.03,VWS V14.01,2013-07-08 10:01:00,
2013-07-08 06:06:00,65.2,64.3,30.17,WNW,284,0.0,0.0,97,0.00,,---,0.03,VWS V14.01,2013-07-08 10:06:00,
2013-07-08 06:11:00,65.2,64.3,30.17,WNW,284,0.0,0.0,97,0.00,,---,0.03,VWS V14.01,2013-07-08 10:11:00,
2013-07-08 06:16:00,65.1,64.2,30.17,WNW,284,0.0,0.0,97,0.00,,---,0.03,VWS V14.01,2013-07-08 10:16:00,
2013-07-08 06:21:00,65.0,64.1,30.17,WNW,284,0.0,0.0,97,0.00,,---,0.03,VWS V14.01,2013-07-08 10:21:00,
2013-07-08 06:26:00,65.0,64.1,30.17,WNW,284,0.0,0.0,97,0.00,,---,0.03,VWS V14.01,2013-07-08 10:26:00,
2013-07-08 06:31:00,65.0,64.1,30.17,WNW,284,0.0,0.0,97,0.00,,---,0.03,VWS V14.01,2013-07-08 10:31:00,
2013-07-08 06:36:00,65.0,64.1,30.18,WNW,284,0.0,0.0,97,0.00,,---,0.03,VWS V14.01,2013-07-08 10:36:00,
2013-07-08 06:41:00,65.0,64.1,30.18,WNW,284,0.0,0.0,97,0.00,,---,0.03,VWS V14.01,2013-07-08 10:41:00,
2013-07-08 06:46:00,64.9,64.0,30.18,WNW,284,0.0,0.0,97,0.00,,---,0.03,VWS V14.01,2013-07-08 10:46:00,
2013-07-08 06:51:00,65.0,64.1,30.18,WNW,284,0.0,0.0,97,0.00,,---,0.03,VWS V14.01,2013-07-08 10:51:00,
2013-07-08 06:56:00,65.2,64.6,30.18,WNW,284,0.0,0.0,98,0.00,,---,0.03,VWS V14.01,2013-07-08 10:56:00,
2013-07-08 07:01:00,65.3,64.7,30.19,WNW,284,0.0,0.0,98,0.00,,---,0.03,VWS V14.01,2013-07-08 11:01:00,
2013-07-08 07:06:00,65.5,64.9,30.19,WNW,284,0.0,0.0,98,0.00,,---,0.03,VWS V14.01,2013-07-08 11:06:00,
2013-07-08 07:11:00,65.7,65.1,30.19,WNW,284,0.0,0.0,98,0.00,,---,0.03,VWS V14.01,2013-07-08 11:11:00,
2013-07-08 07:16:00,65.9,65.3,30.19,WNW,284,0.0,0.0,98,0.00,,---,0.03,VWS V14.01,2013-07-08 11:16:00,
2013-07-08 07:21:00,66.2,65.6,30.19,WNW,284,0.0,0.0,98,0.00,,---,0.03,VWS V14.01,2013-07-08 11:21:00,
2013-07-08 07:26:00,66.5,65.9,30.19,WNW,284,0.0,0.0,98,0.00,,---,0.03,VWS V14.01,2013-07-08 11:26:00,
2013-07-08 07:31:00,66.8,66.2,30.19,WNW,284,0.0,0.0,98,0.00,,---,0.03,VWS V14.01,2013-07-08 11:31:00,
2013-07-08 07:36:00,67.1,66.5,30.19,WNW,284,0.0,0.0,98,0.00,,---,0.03,VWS V14.01,2013-07-08 11:36:00,
2013-07-08 07:41:00,67.5,66.9,30.19,South,169,0.0,1.0,98,0.00,,---,0.03,VWS V14.01,2013-07-08 11:41:00,
2013-07-08 07:46:00,67.8,67.2,30.19,South,169,0.0,0.0,98,0.00,,---,0.03,VWS V14.01,2013-07-08 11:46:00,
2013-07-08 07:51:00,68.1,67.5,30.20,South,169,0.0,0.0,98,0.00,,---,0.03,VWS V14.01,2013-07-08 11:51:00,
2013-07-08 07:56:00,68.3,67.7,30.20,South,169,0.0,0.0,98,0.00,,---,0.03,VWS V14.01,2013-07-08 11:56:00,
2013-07-08 08:01:00,68.7,68.1,30.20,South,169,0.0,0.0,98,0.00,,---,0.03,VWS V14.01,2013-07-08 12:01:00,
2013-07-08 08:06:00,69.2,68.6,30.20,South,169,0.0,0.0,98,0.00,,---,0.03,VWS V14.01,2013-07-08 12:06:00,
2013-07-08 08:11:00,69.6,69.0,30.20,South,169,0.0,0.0,98,0.00,,---,0.03,VWS V14.01,2013-07-08 12:11:00,
2013-07-08 08:16:00,69.9,69.3,30.20,South,169,0.0,0.0,98,0.00,,---,0.03,VWS V14.01,2013-07-08 12:16:00,
2013-07-08 08:21:00,70.2,69.6,30.20,South,169,0.0,0.0,98,0.00,,---,0.03,VWS V14.01,2013-07-08 12:21:00,
2013-07-08 08:26:00,70.5,69.3,30.20,South,169,0.0,0.0,96,0.00,,---,0.03,VWS V14.01,2013-07-08 12:26:00,
2013-07-08 08:31:00,71.0,69.8,30.20,South,169,0.0,0.0,96,0.00,,---,0.03,VWS V14.01,2013-07-08 12:31:00,
2013-07-08 08:36:00,71.3,69.2,30.20,South,181,0.0,1.0,93,0.00,,---,0.03,VWS V14.01,2013-07-08 12:36:00,
2013-07-08 08:41:00,71.8,69.3,30.20,SSE,163,0.0,1.0,92,0.00,,---,0.03,VWS V14.01,2013-07-08 12:41:00,
2013-07-08 08:46:00,72.1,70.0,30.20,SSE,163,0.0,1.0,93,0.00,,---,0.03,VWS V14.01,2013-07-08 12:46:00,
2013-07-08 08:51:00,72.6,70.2,30.20,SSE,164,0.0,2.0,92,0.00,,---,0.03,VWS V14.01,2013-07-08 12:51:00,
2013-07-08 08:56:00,73.1,70.6,30.19,SSE,152,0.0,2.0,92,0.00,,---,0.03,VWS V14.01,2013-07-08 12:56:00,
2013-07-08 09:01:00,73.8,70.7,30.20,SSE,152,0.0,2.0,90,0.00,,---,0.03,VWS V14.01,2013-07-08 13:01:00,
2013-07-08 09:06:00,74.4,70.9,30.20,ESE,110,1.0,2.0,89,0.00,,---,0.03,VWS V14.01,2013-07-08 13:06:00,
2013-07-08 09:11:00,75.0,71.2,30.20,South,179,1.0,3.0,88,0.00,,---,0.03,VWS V14.01,2013-07-08 13:11:00,
2013-07-08 09:16:00,75.2,71.1,30.20,SE,146,1.0,2.0,87,0.00,,---,0.03,VWS V14.01,2013-07-08 13:16:00,
2013-07-08 09:21:00,75.6,71.5,30.20,SSE,168,0.0,3.0,87,0.00,,---,0.03,VWS V14.01,2013-07-08 13:21:00,
2013-07-08 09:26:00,75.8,70.6,30.20,South,183,0.0,3.0,84,0.00,,---,0.03,VWS V14.01,2013-07-08 13:26:00,
2013-07-08 09:31:00,76.2,70.3,30.20,SE,128,3.0,6.0,82,0.00,,---,0.03,VWS V14.01,2013-07-08 13:31:00,
2013-07-08 09:36:00,76.4,71.6,30.21,SSW,199,2.0,6.0,85,0.00,,---,0.03,VWS V14.01,2013-07-08 13:36:00,
2013-07-08 09:41:00,76.4,70.5,30.21,SSE,167,3.0,6.0,82,0.00,,---,0.03,VWS V14.01,2013-07-08 13:41:00,
2013-07-08 09:46:00,76.5,70.2,30.21,SE,133,0.0,1.0,81,0.00,,---,0.03,VWS V14.01,2013-07-08 13:46:00,
2013-07-08 09:51:00,76.9,71.0,30.21,ENE,73,0.0,1.0,82,0.00,,---,0.03,VWS V14.01,2013-07-08 13:51:00,
2013-07-08 09:56:00,76.9,72.1,30.21,ENE,73,0.0,1.0,85,0.00,,---,0.03,VWS V14.01,2013-07-08 13:56:00,
2013-07-08 10:01:00,77.1,71.2,30.21,ESE,122,0.0,0.0,82,0.00,,---,0.03,VWS V14.01,2013-07-08 14:01:00,
2013-07-08 10:06:00,77.6,71.7,30.21,WNW,290,0.0,2.0,82,0.00,,---,0.03,VWS V14.01,2013-07-08 14:06:00,
2013-07-08 10:11:00,77.5,69.7,30.21,West,281,6.0,7.0,77,0.00,,---,0.03,VWS V14.01,2013-07-08 14:11:00,
2013-07-08 10:16:00,77.2,69.4,30.21,WNW,297,4.0,4.0,77,0.00,,---,0.03,VWS V14.01,2013-07-08 14:16:00,
2013-07-08 10:21:00,77.1,67.8,30.21,NNW,341,2.0,7.0,73,0.00,,---,0.03,VWS V14.01,2013-07-08 14:21:00,
2013-07-08 10:26:00,76.7,67.8,30.21,NW,324,4.0,7.0,74,0.00,,---,0.03,VWS V14.01,2013-07-08 14:26:00,
2013-07-08 10:31:00,76.7,67.8,30.21,NW,321,0.0,4.0,74,0.00,,---,0.03,VWS V14.01,2013-07-08 14:31:00,
2013-07-08 10:36:00,76.9,68.0,30.21,North,354,3.0,4.0,74,0.00,,---,0.03,VWS V14.01,2013-07-08 14:36:00,
2013-07-08 10:41:00,77.3,68.8,30.21,NNW,335,1.0,7.0,75,0.00,,---,0.03,VWS V14.01,2013-07-08 14:41:00,
2013-07-08 10:46:00,77.6,68.7,30.21,NW,321,0.0,3.0,74,0.00,,---,0.03,VWS V14.01,2013-07-08 14:46:00,
2013-07-08 10:51:00,77.8,68.9,30.21,North,357,1.0,4.0,74,0.00,,---,0.03,VWS V14.01,2013-07-08 14:51:00,
2013-07-08 10:56:00,78.0,69.8,30.21,North,355,3.0,4.0,76,0.00,,---,0.03,VWS V14.01,2013-07-08 14:56:00,
2013-07-08 11:01:00,78.2,69.6,30.22,WNW,285,5.0,5.0,75,0.00,,---,0.03,VWS V14.01,2013-07-08 15:01:00,
2013-07-08 11:06:00,78.4,68.6,30.21,North,10,1.0,6.0,72,0.00,,---,0.03,VWS V14.01,2013-07-08 15:06:00,
2013-07-08 11:11:00,78.3,69.7,30.22,WNW,287,1.0,6.0,75,0.00,,---,0.03,VWS V14.01,2013-07-08 15:11:00,
2013-07-08 11:16:00,78.5,70.7,30.21,North,352,2.0,2.0,77,0.00,,---,0.03,VWS V14.01,2013-07-08 15:16:00,
2013-07-08 11:21:00,78.4,68.6,30.21,North,356,1.0,3.0,72,0.00,,---,0.03,VWS V14.01,2013-07-08 15:21:00,
2013-07-08 11:26:00,78.5,68.7,30.22,WNW,297,5.0,5.0,72,0.00,,---,0.03,VWS V14.01,2013-07-08 15:26:00,
2013-07-08 11:31:00,79.0,68.8,30.22,WNW,296,0.0,3.0,71,0.00,,---,0.03,VWS V14.01,2013-07-08 15:31:00,
2013-07-08 11:36:00,79.3,69.1,30.22,East,88,1.0,4.0,71,0.00,,---,0.03,VWS V14.01,2013-07-08 15:36:00,
2013-07-08 11:41:00,79.4,69.6,30.22,North,4,0.0,4.0,72,0.00,,---,0.03,VWS V14.01,2013-07-08 15:41:00,
2013-07-08 11:46:00,79.1,68.5,30.22,North,4,1.0,1.0,70,0.00,,---,0.03,VWS V14.01,2013-07-08 15:46:00,
2013-07-08 11:51:00,78.5,67.9,30.22,North,4,0.0,1.0,70,0.00,,---,0.03,VWS V14.01,2013-07-08 15:51:00,
2013-07-08 11:56:00,78.7,68.5,30.22,WNW,287,1.0,3.0,71,0.00,,---,0.03,VWS V14.01,2013-07-08 15:56:00,
2013-07-08 12:01:00,79.2,68.6,30.22,WNW,294,1.0,2.0,70,0.00,,---,0.03,VWS V14.01,2013-07-08 16:01:00,
2013-07-08 12:06:00,79.2,69.0,30.22,SW,219,2.0,4.0,71,0.00,,---,0.03,VWS V14.01,2013-07-08 16:06:00,
2013-07-08 12:11:00,79.5,70.5,30.21,South,175,0.0,4.0,74,0.00,,---,0.03,VWS V14.01,2013-07-08 16:11:00,
2013-07-08 12:16:00,80.0,69.3,30.21,SSE,161,5.0,5.0,70,0.00,,---,0.03,VWS V14.01,2013-07-08 16:16:00,
2013-07-08 12:21:00,80.3,69.6,30.21,West,277,0.0,5.0,70,0.00,,---,0.03,VWS V14.01,2013-07-08 16:21:00,
2013-07-08 12:26:00,80.6,68.6,30.21,WNW,292,0.0,7.0,67,0.00,,---,0.03,VWS V14.01,2013-07-08 16:26:00,
2013-07-08 12:31:00,80.9,67.1,30.21,West,278,0.0,1.0,63,0.00,,---,0.03,VWS V14.01,2013-07-08 16:31:00,
2013-07-08 12:36:00,80.9,69.8,30.21,South,184,2.0,5.0,69,0.00,,---,0.03,VWS V14.01,2013-07-08 16:36:00,
2013-07-08 12:41:00,81.1,68.7,30.21,NW,313,3.0,5.0,66,0.00,,---,0.03,VWS V14.01,2013-07-08 16:41:00,
2013-07-08 12:46:00,80.5,68.1,30.21,West,272,3.0,5.0,66,0.00,,---,0.03,VWS V14.01,2013-07-08 16:46:00,
2013-07-08 12:51:00,80.2,68.7,30.21,WSW,254,3.0,5.0,68,0.00,,---,0.03,VWS V14.01,2013-07-08 16:51:00,
2013-07-08 12:56:00,80.0,67.6,30.21,West,275,2.0,6.0,66,0.00,,---,0.03,VWS V14.01,2013-07-08 16:56:00,
2013-07-08 13:01:00,80.5,69.8,30.21,West,275,0.0,2.0,70,0.00,,---,0.03,VWS V14.01,2013-07-08 17:01:00,
2013-07-08 13:06:00,81.1,70.4,30.21,NW,310,0.0,3.0,70,0.00,,---,0.03,VWS V14.01,2013-07-08 17:06:00,
2013-07-08 13:11:00,81.8,70.6,30.21,West,277,2.0,6.0,69,0.00,,---,0.03,VWS V14.01,2013-07-08 17:11:00,
2013-07-08 13:16:00,81.9,70.7,30.21,SW,218,2.0,2.0,69,0.00,,---,0.03,VWS V14.01,2013-07-08 17:16:00,
2013-07-08 13:21:00,82.4,68.6,30.20,NW,322,0.0,7.0,63,0.00,,---,0.03,VWS V14.01,2013-07-08 17:21:00,
2013-07-08 13:27:00,82.5,70.0,30.20,WNW,285,0.0,7.0,66,0.00,,---,0.03,VWS V14.01,2013-07-08 17:27:00,
2013-07-08 13:32:00,82.8,70.3,30.20,SW,219,1.0,1.0,66,0.00,,---,0.03,VWS V14.01,2013-07-08 17:32:00,
2013-07-08 13:37:00,82.9,68.1,30.20,WSW,252,1.0,5.0,61,0.00,,---,0.03,VWS V14.01,2013-07-08 17:37:00,
2013-07-08 13:42:00,82.5,68.6,30.20,West,266,0.0,5.0,63,0.00,,---,0.03,VWS V14.01,2013-07-08 17:42:00,
2013-07-08 13:47:00,82.0,68.6,30.20,SSE,167,3.0,3.0,64,0.00,,---,0.03,VWS V14.01,2013-07-08 17:47:00,
2013-07-08 13:52:00,81.5,69.1,30.20,WNW,284,1.0,5.0,66,0.00,,---,0.03,VWS V14.01,2013-07-08 17:52:00,
2013-07-08 13:57:00,81.3,69.3,30.19,WNW,295,2.0,5.0,67,0.00,,---,0.03,VWS V14.01,2013-07-08 17:57:00,
2013-07-08 14:02:00,81.5,68.6,30.19,NW,306,3.0,3.0,65,0.00,,---,0.03,VWS V14.01,2013-07-08 18:02:00,
2013-07-08 14:07:00,81.8,67.5,30.19,West,280,4.0,6.0,62,0.00,,---,0.03,VWS V14.01,2013-07-08 18:07:00,
2013-07-08 14:12:00,81.8,67.5,30.20,WSW,247,2.0,6.0,62,0.00,,---,0.03,VWS V14.01,2013-07-08 18:12:00,
2013-07-08 14:17:00,82.0,68.6,30.19,WNW,288,3.0,4.0,64,0.00,,---,0.03,VWS V14.01,2013-07-08 18:17:00,
2013-07-08 14:22:00,82.2,70.2,30.19,West,274,3.0,6.0,67,0.00,,---,0.03,VWS V14.01,2013-07-08 18:22:00,
2013-07-08 14:28:00,82.5,68.6,30.19,West,270,3.0,7.0,63,0.00,,---,0.03,VWS V14.01,2013-07-08 18:28:00,
2013-07-08 14:33:00,83.0,69.6,30.19,SW,231,1.0,4.0,64,0.00,,---,0.03,VWS V14.01,2013-07-08 18:33:00,
2013-07-08 14:38:00,83.4,69.9,30.19,SE,128,0.0,4.0,64,0.00,,---,0.03,VWS V14.01,2013-07-08 18:38:00,
2013-07-08 14:43:00,83.6,66.8,30.18,SSW,200,0.0,4.0,57,0.00,,---,0.03,VWS V14.01,2013-07-08 18:43:00,
2013-07-08 14:48:00,83.9,69.5,30.18,SSE,161,3.0,4.0,62,0.00,,---,0.03,VWS V14.01,2013-07-08 18:48:00,
2013-07-08 14:53:00,83.9,69.5,30.18,SW,218,0.0,5.0,62,0.00,,---,0.03,VWS V14.01,2013-07-08 18:53:00,
2013-07-08 14:59:00,83.7,69.3,30.18,SE,125,0.0,5.0,62,0.00,,---,0.03,VWS V14.01,2013-07-08 18:59:00,
2013-07-08 15:04:00,83.9,69.5,30.17,South,189,1.0,3.0,62,0.00,,---,0.03,VWS V14.01,2013-07-08 19:04:00,
2013-07-08 15:09:00,84.0,69.1,30.17,SE,133,5.0,7.0,61,0.00,,---,0.03,VWS V14.01,2013-07-08 19:09:00,
2013-07-08 15:14:00,83.8,68.4,30.17,SSE,160,2.0,7.0,60,0.00,,---,0.03,VWS V14.01,2013-07-08 19:14:00,
2013-07-08 15:19:00,83.4,69.0,30.17,SSE,149,1.0,4.0,62,0.00,,---,0.03,VWS V14.01,2013-07-08 19:19:00,
2013-07-08 15:24:00,83.1,68.7,30.17,SE,144,1.0,5.0,62,0.00,,---,0.03,VWS V14.01,2013-07-08 19:24:00,
2013-07-08 15:29:00,82.9,67.1,30.17,South,173,4.0,5.0,59,0.00,,---,0.03,VWS V14.01,2013-07-08 19:29:00,
2013-07-08 15:34:00,82.8,67.5,30.17,South,178,0.0,4.0,60,0.00,,---,0.03,VWS V14.01,2013-07-08 19:34:00,
2013-07-08 15:39:00,83.2,67.9,30.17,SSW,197,0.0,7.0,60,0.00,,---,0.03,VWS V14.01,2013-07-08 19:39:00,
2013-07-08 15:44:00,83.8,68.4,30.17,South,177,0.0,7.0,60,0.00,,---,0.03,VWS V14.01,2013-07-08 19:44:00,
2013-07-08 15:49:00,84.3,67.9,30.17,NW,304,3.0,4.0,58,0.00,,---,0.03,VWS V14.01,2013-07-08 19:49:00,
2013-07-08 15:54:00,84.3,67.4,30.17,West,281,0.0,4.0,57,0.00,,---,0.03,VWS V14.01,2013-07-08 19:54:00,
2013-07-08 15:59:00,84.5,69.1,30.17,SE,135,1.0,4.0,60,0.00,,---,0.03,VWS V14.01,2013-07-08 19:59:00,
2013-07-08 16:05:00,84.7,69.3,30.17,SSE,160,3.0,5.0,60,0.00,,---,0.03,VWS V14.01,2013-07-08 20:05:00,
2013-07-08 16:10:00,84.6,68.7,30.16,South,190,0.0,5.0,59,0.00,,---,0.03,VWS V14.01,2013-07-08 20:10:00,
2013-07-08 16:15:00,84.5,68.1,30.16,South,179,4.0,4.0,58,0.00,,---,0.03,VWS V14.01,2013-07-08 20:15:00,
2013-07-08 16:20:00,84.4,69.0,30.16,SSE,160,1.0,6.0,60,0.00,,---,0.03,VWS V14.01,2013-07-08 20:20:00,
2013-07-08 16:25:00,84.2,68.8,30.16,SE,135,3.0,6.0,60,0.00,,---,0.03,VWS V14.01,2013-07-08 20:25:00,
2013-07-08 16:30:00,84.2,68.8,30.16,South,177,0.0,0.0,60,0.00,,---,0.03,VWS V14.01,2013-07-08 20:30:00,
2013-07-08 16:35:00,84.5,69.1,30.16,SE,130,1.0,3.0,60,0.00,,---,0.03,VWS V14.01,2013-07-08 20:35:00,
2013-07-08 16:40:00,84.6,68.7,30.16,SSE,166,1.0,5.0,59,0.00,,---,0.03,VWS V14.01,2013-07-08 20:40:00,
2013-07-08 16:46:00,84.2,68.8,30.15,SSE,148,2.0,2.0,60,0.00,,---,0.03,VWS V14.01,2013-07-08 20:46:00,
2013-07-08 16:51:00,83.8,69.4,30.15,South,185,0.0,2.0,62,0.00,,---,0.03,VWS V14.01,2013-07-08 20:51:00,
2013-07-08 16:56:00,83.3,69.9,30.15,SSE,168,0.0,3.0,64,0.00,,---,0.03,VWS V14.01,2013-07-08 20:56:00,
2013-07-08 17:01:00,82.8,69.8,30.15,SSE,168,0.0,0.0,65,0.00,,---,0.03,VWS V14.01,2013-07-08 21:01:00,
2013-07-08 17:06:00,82.4,69.9,30.15,SSE,168,0.0,1.0,66,0.00,,---,0.03,VWS V14.01,2013-07-08 21:06:00,
2013-07-08 17:11:00,82.1,70.1,30.14,SSE,168,0.0,1.0,67,0.00,,---,0.03,VWS V14.01,2013-07-08 21:11:00,
2013-07-08 17:16:00,81.7,69.7,30.14,West,259,0.0,1.0,67,0.00,,---,0.03,VWS V14.01,2013-07-08 21:16:00,
2013-07-08 17:21:00,81.4,71.1,30.14,West,259,0.0,1.0,71,0.00,,---,0.03,VWS V14.01,2013-07-08 21:21:00,
2013-07-08 17:26:00,81.0,72.3,30.14,West,259,0.0,1.0,75,0.00,,---,0.03,VWS V14.01,2013-07-08 21:26:00,
2013-07-08 17:31:00,80.5,72.6,30.14,WNW,290,0.0,2.0,77,0.00,,---,0.03,VWS V14.01,2013-07-08 21:31:00,
2013-07-08 17:36:00,80.2,73.1,30.13,WNW,290,0.0,2.0,79,0.00,,---,0.03,VWS V14.01,2013-07-08 21:36:00,
2013-07-08 17:41:00,80.0,73.7,30.13,WNW,290,0.0,2.0,81,0.00,,---,0.03,VWS V14.01,2013-07-08 21:41:00,
2013-07-08 17:47:00,79.7,72.2,30.14,WNW,290,0.0,0.0,78,0.00,,---,0.03,VWS V14.01,2013-07-08 21:47:00,
2013-07-08 17:52:00,79.7,71.5,30.14,WNW,290,0.0,0.0,76,0.00,,---,0.03,VWS V14.01,2013-07-08 21:52:00,
2013-07-08 17:57:00,79.8,72.3,30.13,WNW,290,0.0,0.0,78,0.00,,---,0.03,VWS V14.01,2013-07-08 21:57:00,
2013-07-08 18:03:00,79.9,72.1,30.14,WNW,290,0.0,0.0,77,0.00,,---,0.03,VWS V14.01,2013-07-08 22:03:00,
2013-07-08 18:08:00,79.7,73.7,30.14,WNW,290,0.0,0.0,82,0.00,,---,0.03,VWS V14.01,2013-07-08 22:08:00,
2013-07-08 18:13:00,79.4,73.8,30.14,WNW,290,0.0,0.0,83,0.00,,---,0.03,VWS V14.01,2013-07-08 22:13:00,
2013-07-08 18:19:00,79.1,73.5,30.14,WNW,290,0.0,0.0,83,0.00,,---,0.03,VWS V14.01,2013-07-08 22:19:00,
2013-07-08 18:25:00,79.0,73.8,30.14,WNW,290,0.0,0.0,84,0.00,,---,0.03,VWS V14.01,2013-07-08 22:25:00,
2013-07-08 18:30:00,79.0,73.4,30.14,WNW,290,0.0,0.0,83,0.00,,---,0.03,VWS V14.01,2013-07-08 22:30:00,
2013-07-08 18:35:00,79.6,74.3,30.14,WNW,290,0.0,0.0,84,0.00,,---,0.03,VWS V14.01,2013-07-08 22:35:00,
2013-07-08 18:41:00,80.5,73.8,30.14,WNW,290,0.0,0.0,80,0.00,,---,0.03,VWS V14.01,2013-07-08 22:41:00,
2013-07-08 18:46:00,81.3,73.0,30.14,SSE,156,0.0,0.0,76,0.00,,---,0.03,VWS V14.01,2013-07-08 22:46:00,
2013-07-08 18:51:00,81.9,72.8,30.14,SE,142,0.0,0.0,74,0.00,,---,0.03,VWS V14.01,2013-07-08 22:51:00,
2013-07-08 18:56:00,82.3,72.4,30.15,SE,142,0.0,0.0,72,0.00,,---,0.03,VWS V14.01,2013-07-08 22:56:00,
2013-07-08 19:01:00,82.8,72.9,30.14,SE,142,0.0,0.0,72,0.00,,---,0.03,VWS V14.01,2013-07-08 23:01:00,
2013-07-08 19:06:00,83.0,73.1,30.14,SE,142,0.0,0.0,72,0.00,,---,0.03,VWS V14.01,2013-07-08 23:06:00,
2013-07-08 19:11:00,83.2,73.2,30.14,SE,142,0.0,0.0,72,0.00,,---,0.03,VWS V14.01,2013-07-08 23:11:00,
2013-07-08 19:17:00,83.3,73.8,30.14,SE,142,0.0,0.0,73,0.00,,---,0.03,VWS V14.01,2013-07-08 23:17:00,
2013-07-08 19:22:00,83.5,73.9,30.14,SE,142,0.0,0.0,73,0.00,,---,0.03,VWS V14.01,2013-07-08 23:22:00,
2013-07-08 19:27:00,83.1,74.4,30.14,SE,142,0.0,0.0,75,0.00,,---,0.03,VWS V14.01,2013-07-08 23:27:00,
2013-07-08 19:32:00,82.0,73.3,30.14,SE,142,0.0,0.0,75,0.00,,---,0.03,VWS V14.01,2013-07-08 23:32:00,
2013-07-08 19:37:00,81.1,73.2,30.14,SE,142,0.0,0.0,77,0.00,,---,0.03,VWS V14.01,2013-07-08 23:37:00,
2013-07-08 19:42:00,80.1,73.4,30.14,SE,142,0.0,0.0,80,0.00,,---,0.03,VWS V14.01,2013-07-08 23:42:00,
2013-07-08 19:47:00,79.2,72.9,30.14,WSW,248,0.0,0.0,81,0.00,,---,0.03,VWS V14.01,2013-07-08 23:47:00,
2013-07-08 19:52:00,78.5,72.6,30.14,NNW,343,0.0,0.0,82,0.00,,---,0.03,VWS V14.01,2013-07-08 23:52:00,
2013-07-08 19:58:00,78.0,72.1,30.14,NNW,343,0.0,0.0,82,0.00,,---,0.03,VWS V14.01,2013-07-08 23:58:00,
2013-07-08 20:03:00,77.5,71.9,30.15,NNW,343,0.0,0.0,83,0.00,,---,0.03,VWS V14.01,2013-07-09 00:03:00,
2013-07-08 20:08:00,77.1,71.9,30.15,NNW,343,0.0,0.0,84,0.00,,---,0.03,VWS V14.01,2013-07-09 00:08:00,
2013-07-08 20:13:00,76.6,72.1,30.15,NNW,343,0.0,0.0,86,0.00,,---,0.03,VWS V14.01,2013-07-09 00:13:00,
2013-07-08 20:18:00,76.1,71.9,30.15,NNW,343,0.0,0.0,87,0.00,,---,0.03,VWS V14.01,2013-07-09 00:18:00,
2013-07-08 20:23:00,75.5,71.4,30.15,NNW,343,0.0,0.0,87,0.00,,---,0.03,VWS V14.01,2013-07-09 00:23:00,
2013-07-08 20:29:00,75.1,71.3,30.15,NNW,343,0.0,0.0,88,0.00,,---,0.03,VWS V14.01,2013-07-09 00:29:00,
2013-07-08 20:34:00,74.6,71.2,30.16,NNW,343,0.0,0.0,89,0.00,,---,0.03,VWS V14.01,2013-07-09 00:34:00,
2013-07-08 20:39:00,74.1,70.3,30.16,NNW,343,0.0,0.0,88,0.00,,---,0.03,VWS V14.01,2013-07-09 00:39:00,
2013-07-08 20:44:00,73.8,70.4,30.16,NNW,339,0.0,1.0,89,0.00,,---,0.03,VWS V14.01,2013-07-09 00:44:00,
2013-07-08 20:49:00,73.5,70.4,30.16,NNW,339,0.0,0.0,90,0.00,,---,0.03,VWS V14.01,2013-07-09 00:49:00,
2013-07-08 20:54:00,73.2,70.1,30.16,NNW,339,0.0,0.0,90,0.00,,---,0.03,VWS V14.01,2013-07-09 00:54:00,
2013-07-08 21:00:00,72.9,69.5,30.17,NNW,339,0.0,0.0,89,0.00,,---,0.03,VWS V14.01,2013-07-09 01:00:00,
2013-07-08 21:05:00,72.7,69.6,30.17,NNW,339,0.0,0.0,90,0.00,,---,0.03,VWS V14.01,2013-07-09 01:05:00,
2013-07-08 21:10:00,72.5,69.7,30.17,NNW,339,0.0,0.0,91,0.00,,---,0.03,VWS V14.01,2013-07-09 01:10:00,
2013-07-08 21:15:00,72.2,69.4,30.17,NNW,339,0.0,0.0,91,0.00,,---,0.03,VWS V14.01,2013-07-09 01:15:00,
2013-07-08 21:20:00,71.9,69.1,30.17,NNW,339,0.0,0.0,91,0.00,,---,0.03,VWS V14.01,2013-07-09 01:20:00,
2013-07-08 21:25:00,71.7,68.9,30.17,NNW,339,0.0,0.0,91,0.00,,---,0.03,VWS V14.01,2013-07-09 01:25:00,
2013-07-08 21:30:00,71.5,68.7,30.17,NNW,339,0.0,0.0,91,0.00,,---,0.03,VWS V14.01,2013-07-09 01:30:00,
2013-07-08 21:35:00,71.4,69.0,30.17,NNW,339,0.0,0.0,92,0.00,,---,0.03,VWS V14.01,2013-07-09 01:35:00,
2013-07-08 21:40:00,71.2,68.8,30.18,NNW,339,0.0,0.0,92,0.00,,---,0.03,VWS V14.01,2013-07-09 01:40:00,
2013-07-08 21:45:00,71.1,68.7,30.18,NNW,339,0.0,0.0,92,0.00,,---,0.03,VWS V14.01,2013-07-09 01:45:00,
2013-07-08 21:50:00,71.0,68.9,30.18,NNW,339,0.0,0.0,93,0.00,,---,0.03,VWS V14.01,2013-07-09 01:50:00,
2013-07-08 21:55:00,70.8,68.7,30.19,NNW,339,0.0,0.0,93,0.00,,---,0.03,VWS V14.01,2013-07-09 01:55:00,
2013-07-08 22:00:00,70.7,68.6,30.19,NNW,339,0.0,0.0,93,0.00,,---,0.03,VWS V14.01,2013-07-09 02:00:00,
2013-07-08 22:06:00,70.6,68.8,30.19,NNW,339,0.0,0.0,94,0.00,,---,0.03,VWS V14.01,2013-07-09 02:06:00,
2013-07-08 22:11:00,70.6,68.8,30.19,NNW,339,0.0,0.0,94,0.00,,---,0.03,VWS V14.01,2013-07-09 02:11:00,
2013-07-08 22:16:00,70.6,68.8,30.19,NNW,339,0.0,0.0,94,0.00,,---,0.03,VWS V14.01,2013-07-09 02:16:00,
2013-07-08 22:21:00,70.5,68.7,30.19,NNW,339,0.0,0.0,94,0.00,,---,0.03,VWS V14.01,2013-07-09 02:21:00,
2013-07-08 22:26:00,70.5,68.7,30.19,NNW,339,0.0,0.0,94,0.00,,---,0.03,VWS V14.01,2013-07-09 02:26:00,
2013-07-08 22:31:00,70.5,68.7,30.19,NNW,339,0.0,0.0,94,0.00,,---,0.03,VWS V14.01,2013-07-09 02:31:00,
2013-07-08 22:37:00,70.5,68.7,30.19,NNW,339,0.0,0.0,94,0.00,,---,0.03,VWS V14.01,2013-07-09 02:37:00,
2013-07-08 22:42:00,70.4,68.6,30.18,NNW,339,0.0,0.0,94,0.00,,---,0.03,VWS V14.01,2013-07-09 02:42:00,
2013-07-08 22:47:00,70.4,68.6,30.18,NNW,339,0.0,0.0,94,0.00,,---,0.03,VWS V14.01,2013-07-09 02:47:00,
2013-07-08 22:52:00,70.2,68.7,30.18,NNW,339,0.0,0.0,95,0.00,,---,0.03,VWS V14.01,2013-07-09 02:52:00,
2013-07-08 22:58:00,70.2,68.7,30.18,NNW,339,0.0,0.0,95,0.00,,---,0.03,VWS V14.01,2013-07-09 02:58:00,
2013-07-08 23:03:00,70.1,68.6,30.18,NNW,339,0.0,0.0,95,0.00,,---,0.03,VWS V14.01,2013-07-09 03:03:00,
2013-07-08 23:08:00,70.0,68.5,30.18,NNW,339,0.0,0.0,95,0.00,,---,0.03,VWS V14.01,2013-07-09 03:08:00,
2013-07-08 23:13:00,70.0,68.5,30.18,NNW,339,0.0,0.0,95,0.00,,---,0.03,VWS V14.01,2013-07-09 03:13:00,
2013-07-08 23:18:00,69.9,68.4,30.18,NNW,339,0.0,0.0,95,0.00,,---,0.03,VWS V14.01,2013-07-09 03:18:00,
2013-07-08 23:23:00,69.9,68.4,30.17,NNW,339,0.0,0.0,95,0.00,,---,0.03,VWS V14.01,2013-07-09 03:23:00,
2013-07-08 23:28:00,69.8,68.3,30.17,NNW,339,0.0,0.0,95,0.00,,---,0.03,VWS V14.01,2013-07-09 03:28:00,
2013-07-08 23:34:00,69.7,68.2,30.17,NNW,339,0.0,0.0,95,0.00,,---,0.03,VWS V14.01,2013-07-09 03:34:00,
2013-07-08 23:39:00,69.6,68.1,30.17,NNW,339,0.0,0.0,95,0.00,,---,0.03,VWS V14.01,2013-07-09 03:39:00,
2013-07-08 23:44:00,69.5,68.0,30.18,NNW,339,0.0,0.0,95,0.00,,---,0.03,VWS V14.01,2013-07-09 03:44:00,
2013-07-08 23:49:00,69.4,67.9,30.18,NNW,339,0.0,0.0,95,0.00,,---,0.03,VWS V14.01,2013-07-09 03:49:00,
2013-07-08 23:54:00,69.3,67.8,30.18,NNW,339,0.0,0.0,95,0.00,,---,0.03,VWS V14.01,2013-07-09 03:54:00,
2013-07-08 23:59:00,69.3,68.1,30.18,NNW,339,0.0,0.0,96,0.00,,---,0.03,VWS V14.01,2013-07-09 03:59:00,